Aeroporto :
LOGIN :

Iscrizione | Disclaimer

   EN    FR    IT 

 










Sommario :    VFR   VFR Marginale   IFR   IFR Intensivo   IFR Molto Intensivo
Visibilità : 
Base nubi : 
>= 8 km
>= 3000ft
5 / 8 km
1000 / 3000 ft
1500m / 5 km
500 / 1000 ft
800 / 1500m
200 / 500 ft
< 800m
< 200 ft
Simboli :   Temporali  Nebbia  Neve Forte  Precipitazioni Forti  Vento > 20 kt
SIGMETs :   Varie  Temporali  Ghiacco  Turbolenza  Onda orograficha  Ceneri Vulcaniche







- Altitudine del aeroporto : 1202 ft
- Codice IATA : IGS


ETSI - Ingolstadt

ULTIMO METAR :
  • 240620Z 36001KT 9999 FEW280 12/08 Q1016 BLU+BLU+

METARs OBSOLETI :
  • 240520Z 00000KT 9999 FEW280 09/07 Q1016 BLU+BLU+
  • 240449Z VRB01KT 9999 FEW001 08/07 Q1016 BLU+BLU+
  • 240431Z 17001KT 0800 R25/4700U FG FEW001 07/06 Q1016 AMB RED BECMG BLU+
  • 240406Z 19002KT 0700 R25/0300D FG FEW270 06/05 Q1016 RED
  • 240350Z 18002KT 1400 R25/0300D PRFG MIFG SCT270 06/05 Q1016 AMB

TAF TAF ETSI
Valido dal 24 a 05 ore il 24 a 14 ore UTC


240411Z 2405/2414 VRB02KT 9999 NSW FEW140 SCT240
Nessun NOTAM noto per questo aeroporto.



MetMap, La meteo Aeronautica in un colpo d'occhio ! - Copyright ORBIFLY Dicembre 2007 - Disclaimer

ORBIFLY MET'MAP TEAM :

Programmazione e sviluppo : Alexandra Zaïnal
Concezione e sviluppo : Baudouin d'Aumeries
Co-Programmazione e sviluppo : Marc-Olivier Méhu
Supporto tecnico e logistico : Manuel Goepfert
Aiuto per la traduzione : Arnaldo La Scala

Contatto : metmap@orbifly.com




FONTI E CREDITI :

   NOAA